createdAt,value
2023-04-02T00:01:01.480Z,13.35
2023-04-02T00:03:42.557Z,14.60
2023-04-02T00:06:33.149Z,14.80
2023-04-02T00:09:04.802Z,15.30
2023-04-02T00:11:37.541Z,14.75
2023-04-02T00:14:13.693Z,14.80
2023-04-02T00:16:40.981Z,14.00
2023-04-02T00:19:18.479Z,15.60
2023-04-02T00:21:47.540Z,14.45
2023-04-02T00:24:17.712Z,14.40
2023-04-02T00:26:50.547Z,14.50
2023-04-02T00:29:19.283Z,14.93
2023-04-02T00:31:49.294Z,14.30
2023-04-02T00:34:22.105Z,15.27
2023-04-02T00:36:51.218Z,15.60
2023-04-02T00:39:24.976Z,14.57
2023-04-02T00:41:58.856Z,13.93
2023-04-02T00:44:30.525Z,14.35
2023-04-02T00:46:57.989Z,15.52
2023-04-02T00:49:39.453Z,14.30
2023-04-02T00:52:18.849Z,14.63
2023-04-02T00:54:51.141Z,14.30
2023-04-02T00:57:25.752Z,14.23
2023-04-02T01:00:05.232Z,14.90
2023-04-02T01:02:34.375Z,15.48
2023-04-02T01:05:23.657Z,15.57
2023-04-02T01:08:14.920Z,14.07
2023-04-02T01:11:23.790Z,14.82
2023-04-02T01:13:53.532Z,14.00
2023-04-02T01:16:33.291Z,14.55
2023-04-02T01:19:28.691Z,13.48
2023-04-02T01:22:35.260Z,15.07
2023-04-02T01:25:04.715Z,13.93
2023-04-02T01:27:49.608Z,14.45
2023-04-02T01:30:18.436Z,14.75
2023-04-02T01:32:45.808Z,14.40
2023-04-02T01:35:13.020Z,15.43
2023-04-02T01:37:50.180Z,15.50
2023-04-02T01:40:44.037Z,14.70
2023-04-02T01:43:33.107Z,14.05
2023-04-02T01:46:06.811Z,14.43
2023-04-02T01:48:33.881Z,14.67
2023-04-02T01:51:05.558Z,14.52
2023-04-02T01:53:33.402Z,15.07
2023-04-02T01:56:04.927Z,13.73
2023-04-02T01:58:33.897Z,14.55
2023-04-02T02:01:08.493Z,14.30
2023-04-02T02:03:38.793Z,14.20
2023-04-02T02:06:06.847Z,14.23
2023-04-02T02:08:58.374Z,14.13
2023-04-02T02:11:28.567Z,15.85
2023-04-02T02:14:00.987Z,14.20
2023-04-02T02:16:31.964Z,14.93
2023-04-02T02:19:04.559Z,15.63
2023-04-02T02:21:42.431Z,15.27
2023-04-02T02:24:31.972Z,14.15
2023-04-02T02:27:37.956Z,14.33
2023-04-02T02:30:25.408Z,13.93
2023-04-02T02:33:21.845Z,13.07
2023-04-02T02:35:56.154Z,13.57
2023-04-02T02:38:34.677Z,14.38
2023-04-02T02:41:17.059Z,13.83
2023-04-02T02:43:57.617Z,13.07
2023-04-02T02:46:27.723Z,14.07
2023-04-02T02:48:57.900Z,13.70
2023-04-02T02:51:50.795Z,13.90
2023-04-02T02:54:27.212Z,12.60
2023-04-02T02:57:00.177Z,12.75
2023-04-02T02:59:30.905Z,12.10
2023-04-02T03:02:00.523Z,12.90
2023-04-02T03:04:30.768Z,13.85
2023-04-02T03:06:59.228Z,12.33
2023-04-02T03:09:39.532Z,12.02
2023-04-02T03:12:22.449Z,12.68
2023-04-02T03:15:01.249Z,12.23
2023-04-02T03:17:37.226Z,12.05
2023-04-02T03:20:17.918Z,12.77
2023-04-02T03:22:55.356Z,12.45
2023-04-02T03:25:23.765Z,12.02
2023-04-02T03:27:56.848Z,11.82
2023-04-02T03:30:44.274Z,11.85
2023-04-02T03:33:24.166Z,12.70
2023-04-02T03:35:55.200Z,9.93
2023-04-02T03:38:35.115Z,11.18
2023-04-02T03:41:18.081Z,9.68
2023-04-02T03:43:54.903Z,10.90
2023-04-02T03:46:33.839Z,11.63
2023-04-02T03:49:07.728Z,10.98
2023-04-02T03:51:57.712Z,11.25
2023-04-02T03:54:25.089Z,10.18
2023-04-02T03:56:53.458Z,11.20
2023-04-02T03:59:42.916Z,10.67
2023-04-02T04:02:26.825Z,10.63
2023-04-02T04:04:56.324Z,10.23
2023-04-02T04:07:34.502Z,9.40
2023-04-02T04:10:03.301Z,9.32
2023-04-02T04:12:37.130Z,9.93
2023-04-02T04:15:15.471Z,10.25
2023-04-02T04:18:10.634Z,10.63
2023-04-02T04:20:57.122Z,9.25
2023-04-02T04:23:36.872Z,9.05
2023-04-02T04:26:12.777Z,10.07
2023-04-02T04:28:48.512Z,8.63
2023-04-02T04:31:27.304Z,9.57
2023-04-02T04:34:04.022Z,9.77
2023-04-02T04:36:41.601Z,9.98
2023-04-02T04:39:18.163Z,9.57
2023-04-02T04:41:48.894Z,10.60
2023-04-02T04:44:24.660Z,10.00
2023-04-02T04:47:07.495Z,10.32
2023-04-02T04:50:08.869Z,9.02
2023-04-02T04:52:40.569Z,9.43
2023-04-02T04:55:28.738Z,10.23
2023-04-02T04:58:04.146Z,10.35
2023-04-02T05:00:57.755Z,9.88
2023-04-02T05:03:43.604Z,10.60
2023-04-02T05:06:33.959Z,11.10
2023-04-02T05:09:15.775Z,9.10
2023-04-02T05:11:53.064Z,9.45
2023-04-02T05:14:32.109Z,9.32
2023-04-02T05:17:38.250Z,9.52
2023-04-02T05:20:20.664Z,9.57
2023-04-02T05:23:24.061Z,10.05
2023-04-02T05:26:00.589Z,10.55
2023-04-02T05:28:38.971Z,9.30
2023-04-02T05:31:12.550Z,10.00
2023-04-02T05:33:45.619Z,10.53
2023-04-02T05:36:24.494Z,11.20
2023-04-02T05:38:57.602Z,10.00
2023-04-02T05:42:01.787Z,9.90
2023-04-02T05:44:45.840Z,9.60
2023-04-02T05:47:24.392Z,11.00
2023-04-02T05:50:08.741Z,10.75
2023-04-02T05:52:49.524Z,10.63
2023-04-02T05:55:17.088Z,11.20
2023-04-02T05:58:21.383Z,10.90
2023-04-02T06:01:25.344Z,11.03
2023-04-02T06:04:23.353Z,11.88
2023-04-02T06:06:59.597Z,11.85
2023-04-02T06:09:27.836Z,11.73
2023-04-02T06:12:33.873Z,12.68
2023-04-02T06:15:01.376Z,10.97
2023-04-02T06:17:43.622Z,11.32
2023-04-02T06:20:16.682Z,12.75
2023-04-02T06:22:59.942Z,10.60
2023-04-02T06:25:32.548Z,11.85
2023-04-02T06:28:04.607Z,11.13
2023-04-02T06:30:35.803Z,11.93
2023-04-02T06:33:05.274Z,11.07
2023-04-02T06:35:39.044Z,10.77
2023-04-02T06:38:25.609Z,10.65
2023-04-02T06:40:58.947Z,9.97
2023-04-02T06:43:45.539Z,9.98
2023-04-02T06:46:38.886Z,12.30
2023-04-02T06:49:21.715Z,11.02
2023-04-02T06:51:54.537Z,11.27
2023-04-02T06:54:22.010Z,10.57
2023-04-02T06:56:58.865Z,10.93
2023-04-02T06:59:46.247Z,10.52
2023-04-02T07:02:20.641Z,11.43
2023-04-02T07:04:48.218Z,10.25
2023-04-02T07:07:16.703Z,10.80
2023-04-02T07:09:46.215Z,11.15
2023-04-02T07:12:14.281Z,9.85
2023-04-02T07:14:43.049Z,10.02
2023-04-02T07:17:17.948Z,11.05
2023-04-02T07:19:49.255Z,11.00
2023-04-02T07:22:19.391Z,10.10
2023-04-02T07:24:49.838Z,11.70
2023-04-02T07:27:16.917Z,11.07
2023-04-02T07:29:44.088Z,11.25
2023-04-02T07:32:12.419Z,10.57
2023-04-02T07:34:42.458Z,11.25
2023-04-02T07:37:14.181Z,10.32
2023-04-02T07:39:41.883Z,10.40
2023-04-02T07:42:08.969Z,10.40
2023-04-02T07:44:35.975Z,9.57
2023-04-02T07:47:03.125Z,9.98
2023-04-02T07:49:30.164Z,10.85
2023-04-02T07:51:57.229Z,10.90
2023-04-02T07:54:24.341Z,10.35
2023-04-02T07:56:51.431Z,9.93
2023-04-02T07:59:18.441Z,10.70
2023-04-02T08:01:45.932Z,11.13
2023-04-02T08:04:21.547Z,11.35
2023-04-02T08:06:49.678Z,12.18
2023-04-02T08:09:17.641Z,12.83
2023-04-02T08:11:46.665Z,12.27
2023-04-02T08:14:14.355Z,11.77
2023-04-02T08:16:52.571Z,11.85
2023-04-02T08:19:20.033Z,11.50
2023-04-02T08:21:50.659Z,11.87
2023-04-02T08:24:21.584Z,11.57
2023-04-02T08:26:50.062Z,12.30
2023-04-02T08:29:17.222Z,11.55
2023-04-02T08:31:44.211Z,11.82
2023-04-02T08:34:11.269Z,11.43
2023-04-02T08:36:41.740Z,11.40
2023-04-02T08:39:13.908Z,10.68
2023-04-02T08:41:48.483Z,11.75
2023-04-02T08:44:39.982Z,11.95
2023-04-02T08:47:09.958Z,11.93
2023-04-02T08:49:57.948Z,11.52
2023-04-02T08:52:28.874Z,11.02
2023-04-02T08:54:58.025Z,11.93
2023-04-02T08:57:43.945Z,11.93
2023-04-02T09:00:20.498Z,11.87
2023-04-02T09:03:00.933Z,11.68
2023-04-02T09:05:31.974Z,12.95
2023-04-02T09:08:02.964Z,12.55
2023-04-02T09:10:42.733Z,12.98
2023-04-02T09:13:18.638Z,12.23
2023-04-02T09:15:45.869Z,12.05
2023-04-02T09:18:18.192Z,11.88
2023-04-02T09:20:45.716Z,12.50
2023-04-02T09:23:18.792Z,12.45
2023-04-02T09:26:02.901Z,12.57
2023-04-02T09:28:31.841Z,12.55
2023-04-02T09:31:11.685Z,12.57
2023-04-02T09:33:48.466Z,12.07
2023-04-02T09:36:36.013Z,12.55
2023-04-02T09:39:17.777Z,11.17
2023-04-02T09:41:50.265Z,12.25
2023-04-02T09:44:32.005Z,11.77
2023-04-02T09:47:05.493Z,11.93
2023-04-02T09:49:39.990Z,12.27
2023-04-02T09:52:30.982Z,11.27
2023-04-02T09:55:16.419Z,11.18
2023-04-02T09:57:46.336Z,12.77
2023-04-02T10:00:32.121Z,10.95
2023-04-02T10:03:19.713Z,12.07
2023-04-02T10:05:47.664Z,12.07
2023-04-02T10:08:28.235Z,10.57
2023-04-02T10:11:02.017Z,10.82
2023-04-02T10:13:31.326Z,11.02
2023-04-02T10:16:22.684Z,11.07
2023-04-02T10:19:19.035Z,10.60
2023-04-02T10:21:49.268Z,11.05
2023-04-02T10:24:17.619Z,11.52
2023-04-02T10:26:56.595Z,11.27
2023-04-02T10:30:09.599Z,11.32
2023-04-02T10:32:57.925Z,9.97
2023-04-02T10:35:38.825Z,9.98
2023-04-02T10:38:24.452Z,9.88
2023-04-02T10:40:56.459Z,10.15
2023-04-02T10:43:47.544Z,11.02
2023-04-02T10:46:25.485Z,9.97
2023-04-02T10:49:18.288Z,10.70
2023-04-02T10:51:47.773Z,11.20
2023-04-02T10:54:42.668Z,11.13
2023-04-02T10:57:35.017Z,10.07
2023-04-02T11:00:09.633Z,10.83
2023-04-02T11:02:36.717Z,10.95
2023-04-02T11:05:14.050Z,12.15
2023-04-02T11:07:52.639Z,11.90
2023-04-02T11:10:21.238Z,10.60
2023-04-02T11:12:59.268Z,11.43
2023-04-02T11:15:27.443Z,11.80
2023-04-02T11:17:54.896Z,11.68
2023-04-02T11:20:44.163Z,11.90
2023-04-02T11:23:13.698Z,11.88
2023-04-02T11:25:42.592Z,11.33
2023-04-02T11:28:29.428Z,12.25
2023-04-02T11:30:57.866Z,12.02
2023-04-02T11:33:38.113Z,12.75
2023-04-02T11:36:43.957Z,12.48
2023-04-02T11:39:17.419Z,12.23
2023-04-02T11:42:06.842Z,10.98
2023-04-02T11:44:34.937Z,12.13
2023-04-02T11:47:24.634Z,10.10
2023-04-02T11:49:54.901Z,11.10
2023-04-02T11:52:28.917Z,10.87
2023-04-02T11:54:58.880Z,11.23
2023-04-02T11:57:51.879Z,11.40
2023-04-02T12:00:26.530Z,11.23
2023-04-02T12:03:00.157Z,11.90
2023-04-02T12:05:43.291Z,11.60
2023-04-02T12:08:15.238Z,11.77
2023-04-02T12:11:02.493Z,12.32
2023-04-02T12:13:41.768Z,11.65
2023-04-02T12:16:11.230Z,11.13
2023-04-02T12:18:47.254Z,10.97
2023-04-02T12:21:26.904Z,11.38
2023-04-02T12:23:57.948Z,10.10
2023-04-02T12:26:27.998Z,10.43
2023-04-02T12:28:56.394Z,11.70
2023-04-02T12:31:25.329Z,11.43
2023-04-02T12:33:53.235Z,10.60
2023-04-02T12:36:23.739Z,12.25
2023-04-02T12:38:52.466Z,10.50
2023-04-02T12:41:24.455Z,10.27
2023-04-02T12:44:01.851Z,10.37
2023-04-02T12:46:30.958Z,11.80
2023-04-02T12:49:08.542Z,10.90
2023-04-02T12:51:36.650Z,11.02
2023-04-02T12:54:04.448Z,11.63
2023-04-02T12:56:31.548Z,12.73
2023-04-02T12:59:00.713Z,11.65
2023-04-02T13:01:31.713Z,11.60
2023-04-02T13:04:15.200Z,10.93
2023-04-02T13:06:50.120Z,10.00
2023-04-02T13:09:28.823Z,10.57
2023-04-02T13:11:56.149Z,10.90
2023-04-02T13:14:24.723Z,10.82
2023-04-02T13:16:51.898Z,9.77
2023-04-02T13:19:28.508Z,11.02
2023-04-02T13:21:57.872Z,10.77
2023-04-02T13:24:27.568Z,11.35
2023-04-02T13:27:01.112Z,10.52
2023-04-02T13:29:33.268Z,9.50
2023-04-02T13:32:05.997Z,10.80
2023-04-02T13:34:32.938Z,9.40
2023-04-02T13:37:00.032Z,9.60
2023-04-02T13:39:27.347Z,10.30
2023-04-02T13:42:12.967Z,9.63
2023-04-02T13:44:40.300Z,9.70
2023-04-02T13:47:07.536Z,9.60
2023-04-02T13:49:34.582Z,9.48
2023-04-02T13:52:04.437Z,10.52
2023-04-02T13:55:04.463Z,11.18
2023-04-02T13:57:31.625Z,10.65
2023-04-02T13:59:58.670Z,10.13
2023-04-02T14:02:26.118Z,10.00
2023-04-02T14:05:04.147Z,11.07
2023-04-02T14:07:56.011Z,11.00
2023-04-02T14:10:32.318Z,11.27
2023-04-02T14:13:17.812Z,11.20
2023-04-02T14:16:06.043Z,9.40
2023-04-02T14:19:12.814Z,8.75
2023-04-02T14:21:58.258Z,9.13
2023-04-02T14:24:37.388Z,8.77
2023-04-02T14:27:11.218Z,8.87
2023-04-02T14:29:58.351Z,8.48
2023-04-02T14:32:44.206Z,9.13
2023-04-02T14:35:11.710Z,8.27
2023-04-02T14:37:41.619Z,8.38
2023-04-02T14:40:32.154Z,9.40
2023-04-02T14:43:08.461Z,8.90
2023-04-02T14:45:41.482Z,9.98
2023-04-02T14:48:47.869Z,8.95
2023-04-02T14:51:17.578Z,10.50
2023-04-02T14:54:14.862Z,10.23
2023-04-02T14:56:52.336Z,10.80
2023-04-02T14:59:34.563Z,11.32
2023-04-02T15:02:28.068Z,10.98
2023-04-02T15:05:10.034Z,11.38
2023-04-02T15:07:41.953Z,11.30
2023-04-02T15:10:24.870Z,12.60
2023-04-02T15:12:54.114Z,12.38
2023-04-02T15:15:46.933Z,12.15
2023-04-02T15:18:16.821Z,10.82
2023-04-02T15:21:01.360Z,11.37
2023-04-02T15:23:35.207Z,10.60
2023-04-02T15:26:15.917Z,11.40
2023-04-02T15:29:15.841Z,11.00
2023-04-02T15:31:52.032Z,11.00
2023-04-02T15:34:42.365Z,10.57
2023-04-02T15:37:31.016Z,10.63
2023-04-02T15:40:24.116Z,10.30
2023-04-02T15:43:05.205Z,10.15
2023-04-02T15:46:14.314Z,10.00
2023-04-02T15:48:53.443Z,10.27
2023-04-02T15:51:45.082Z,10.45
2023-04-02T15:54:33.390Z,10.90
2023-04-02T15:57:22.369Z,10.00
2023-04-02T15:59:58.022Z,10.40
2023-04-02T16:02:55.664Z,10.63
2023-04-02T16:05:34.786Z,9.70
2023-04-02T16:08:17.064Z,10.18
2023-04-02T16:10:45.780Z,9.75
2023-04-02T16:13:36.590Z,9.57
2023-04-02T16:16:08.701Z,9.47
2023-04-02T16:18:44.854Z,8.68
2023-04-02T16:21:20.857Z,9.45
2023-04-02T16:23:48.581Z,10.30
2023-04-02T16:26:43.429Z,10.27
2023-04-02T16:29:55.302Z,10.70
2023-04-02T16:32:41.079Z,9.63
2023-04-02T16:35:41.664Z,10.02
2023-04-02T16:38:37.870Z,10.18
2023-04-02T16:41:35.699Z,10.27
2023-04-02T16:44:35.970Z,9.83
2023-04-02T16:47:24.723Z,9.38
2023-04-02T16:49:54.824Z,10.32
2023-04-02T16:52:34.108Z,9.65
2023-04-02T16:55:34.064Z,9.32
2023-04-02T16:58:22.420Z,9.53
2023-04-02T17:01:18.556Z,9.52
2023-04-02T17:04:02.220Z,8.95
2023-04-02T17:06:39.820Z,9.73
2023-04-02T17:09:24.061Z,9.05
2023-04-02T17:12:04.621Z,8.17
2023-04-02T17:14:39.178Z,8.88
2023-04-02T17:17:08.942Z,8.23
2023-04-02T17:19:36.426Z,8.80
2023-04-02T17:22:05.739Z,9.63
2023-04-02T17:24:44.596Z,8.50
2023-04-02T17:27:35.638Z,8.50
2023-04-02T17:30:13.349Z,8.60
2023-04-02T17:32:40.570Z,7.75
2023-04-02T17:35:40.415Z,8.73
2023-04-02T17:38:13.366Z,8.80
2023-04-02T17:41:08.173Z,9.00
2023-04-02T17:43:53.859Z,8.40
2023-04-02T17:46:37.800Z,8.73
2023-04-02T17:49:34.173Z,8.88
2023-04-02T17:52:05.827Z,9.60
2023-04-02T17:54:54.700Z,9.43
2023-04-02T17:57:30.784Z,9.95
2023-04-02T18:00:08.789Z,8.27
2023-04-02T18:03:18.751Z,8.63
2023-04-02T18:05:54.558Z,8.23
2023-04-02T18:08:49.158Z,8.77
2023-04-02T18:11:47.067Z,8.68
2023-04-02T18:14:32.929Z,8.60
2023-04-02T18:16:59.925Z,8.32
2023-04-02T18:19:44.778Z,7.87
2023-04-02T18:22:23.191Z,7.95
2023-04-02T18:25:27.784Z,7.20
2023-04-02T18:28:05.847Z,7.32
2023-04-02T18:30:32.962Z,7.50
2023-04-02T18:33:28.642Z,7.33
2023-04-02T18:36:26.495Z,7.28
2023-04-02T18:39:11.031Z,7.70
2023-04-02T18:41:47.792Z,7.80
2023-04-02T18:44:30.334Z,6.97
2023-04-02T18:47:40.707Z,8.73
2023-04-02T18:50:19.935Z,8.35
2023-04-02T18:52:48.738Z,9.30
2023-04-02T18:55:20.562Z,8.70
2023-04-02T18:57:52.755Z,8.57
2023-04-02T19:00:26.359Z,8.80
2023-04-02T19:03:03.078Z,8.52
2023-04-02T19:05:36.409Z,8.52
2023-04-02T19:08:29.087Z,8.45
2023-04-02T19:11:04.390Z,8.27
2023-04-02T19:13:31.805Z,8.13
2023-04-02T19:16:05.957Z,7.97
2023-04-02T19:18:41.634Z,8.30
2023-04-02T19:21:26.888Z,7.82
2023-04-02T19:24:20.124Z,8.10
2023-04-02T19:26:57.277Z,7.40
2023-04-02T19:29:33.130Z,7.22
2023-04-02T19:32:25.515Z,7.57
2023-04-02T19:35:02.887Z,7.82
2023-04-02T19:37:33.094Z,7.38
2023-04-02T19:40:08.667Z,6.70
2023-04-02T19:42:45.032Z,6.95
2023-04-02T19:45:29.022Z,6.72
2023-04-02T19:47:58.866Z,7.25
2023-04-02T19:50:26.096Z,7.50
2023-04-02T19:52:53.076Z,7.97
2023-04-02T19:55:20.433Z,7.97
2023-04-02T19:57:47.604Z,7.30
2023-04-02T20:00:15.951Z,6.97
2023-04-02T20:02:43.024Z,7.40
2023-04-02T20:05:10.213Z,7.20
2023-04-02T20:07:37.341Z,7.15
2023-04-02T20:10:04.689Z,7.95
2023-04-02T20:12:31.678Z,7.63
2023-04-02T20:14:58.662Z,7.88
2023-04-02T20:17:25.783Z,8.30
2023-04-02T20:19:52.886Z,7.55
2023-04-02T20:22:19.929Z,8.07
2023-04-02T20:24:47.102Z,8.13
2023-04-02T20:27:16.027Z,8.70
2023-04-02T20:29:43.136Z,8.37
2023-04-02T20:32:11.075Z,8.95
2023-04-02T20:34:38.071Z,8.82
2023-04-02T20:37:05.239Z,8.13
2023-04-02T20:39:32.311Z,8.30
2023-04-02T20:42:02.985Z,9.00
2023-04-02T20:44:30.072Z,8.95
2023-04-02T20:46:57.613Z,8.30
2023-04-02T20:49:25.739Z,8.15
2023-04-02T20:51:52.889Z,8.00
2023-04-02T20:54:19.921Z,7.40
2023-04-02T20:56:47.483Z,7.63
2023-04-02T20:59:14.578Z,7.80
2023-04-02T21:01:41.741Z,7.75
2023-04-02T21:04:08.995Z,8.10
2023-04-02T21:06:38.626Z,6.87
2023-04-02T21:09:09.163Z,7.25
2023-04-02T21:11:36.973Z,6.88
2023-04-02T21:14:04.563Z,6.88
2023-04-02T21:16:32.288Z,7.13
2023-04-02T21:19:07.771Z,7.30
2023-04-02T21:21:36.361Z,7.35
2023-04-02T21:24:05.767Z,7.82
2023-04-02T21:26:35.396Z,6.65
2023-04-02T21:29:03.001Z,7.05
2023-04-02T21:31:34.023Z,6.40
2023-04-02T21:34:01.367Z,6.95
2023-04-02T21:36:31.756Z,7.25
2023-04-02T21:39:08.090Z,7.18
2023-04-02T21:41:37.614Z,7.70
2023-04-02T21:44:06.974Z,6.87
2023-04-02T21:46:37.176Z,7.00
2023-04-02T21:49:05.752Z,7.40
2023-04-02T21:51:33.851Z,7.07
2023-04-02T21:54:01.737Z,7.03
2023-04-02T21:56:40.594Z,7.30
2023-04-02T21:59:09.736Z,7.07
2023-04-02T22:01:40.132Z,6.97
2023-04-02T22:04:08.859Z,7.10
2023-04-02T22:06:39.255Z,7.47
2023-04-02T22:09:12.283Z,7.30
2023-04-02T22:11:45.928Z,6.97
2023-04-02T22:14:13.366Z,6.50
2023-04-02T22:16:41.234Z,7.00
2023-04-02T22:19:10.812Z,7.13
2023-04-02T22:21:39.209Z,7.20
2023-04-02T22:24:09.381Z,7.10
2023-04-02T22:26:37.031Z,7.55
2023-04-02T22:29:05.181Z,7.80
2023-04-02T22:31:35.124Z,8.00
2023-04-02T22:34:04.709Z,7.67
2023-04-02T22:36:32.320Z,7.60
2023-04-02T22:39:01.303Z,7.93
2023-04-02T22:41:29.778Z,8.15
2023-04-02T22:43:57.755Z,8.20
2023-04-02T22:46:26.812Z,7.83
2023-04-02T22:48:54.871Z,8.02
2023-04-02T22:51:23.301Z,7.90
2023-04-02T22:53:50.670Z,7.40
2023-04-02T22:56:21.743Z,7.78
2023-04-02T22:58:49.362Z,7.50
2023-04-02T23:01:25.936Z,7.55
2023-04-02T23:03:54.740Z,7.45
2023-04-02T23:06:22.264Z,7.95
2023-04-02T23:08:49.352Z,7.88
2023-04-02T23:11:25.029Z,7.83
2023-04-02T23:13:54.903Z,7.93
2023-04-02T23:16:23.180Z,7.57
2023-04-02T23:18:51.001Z,7.80
2023-04-02T23:21:19.140Z,7.40
2023-04-02T23:23:47.194Z,7.27
2023-04-02T23:26:24.543Z,7.18
2023-04-02T23:28:51.782Z,7.50
2023-04-02T23:31:21.631Z,8.23
2023-04-02T23:33:49.611Z,8.60
2023-04-02T23:36:25.340Z,8.37
2023-04-02T23:38:57.049Z,14.48
2023-04-02T23:41:27.017Z,12.20
2023-04-02T23:43:56.018Z,9.65
2023-04-02T23:46:23.667Z,9.45
2023-04-02T23:48:52.174Z,9.27
2023-04-02T23:51:19.469Z,10.02
2023-04-02T23:53:47.942Z,11.13
2023-04-02T23:56:15.007Z,15.10
2023-04-02T23:58:42.032Z,14.25
